Time;durP1;ratioP1;P1;durP2;ratioP2;P2;SDS_P1;SDS_P2;PMS_P1;PMS_P2;Temp;Humidity;BMP_temperature;BMP_pressure;BME280_temperature;BME280_humidity;BME280_pressure;Samples;Min_cycle;Max_cycle;Signal;HPM_P1;HPM_P2
2022/08/12 00:43:28;;;;;;;18.45;6.10;;;;;;;13.15;100.00;99493.89;2235926;79;20993;-85
2022/08/12 00:46:30;;;;;;;17.65;5.37;;;;;;;13.14;100.00;99490.87;2241688;79;21009;-85
2022/08/12 00:49:31;;;;;;;20.75;6.20;;;;;;;13.12;100.00;99488.33;2245458;79;21033;-83
2022/08/12 00:52:33;;;;;;;21.00;6.03;;;;;;;13.13;100.00;99494.44;2243107;78;21024;-83
2022/08/12 00:55:34;;;;;;;21.70;5.97;;;;;;;13.08;100.00;99498.67;2244860;78;21030;-84
2022/08/12 00:58:37;;;;;;;19.43;6.03;;;;;;;13.13;100.00;99490.48;2238898;79;20992;-85
2022/08/12 01:01:38;;;;;;;22.90;6.03;;;;;;;13.09;100.00;99494.27;2240118;78;21013;-86
2022/08/12 01:13:50;;;;;;;26.33;7.87;;;;;;;13.05;100.00;99487.49;2218150;78;21017;-85
2022/08/12 01:16:51;;;;;;;22.10;7.10;;;;;;;13.10;100.00;99495.94;2197373;80;21035;-73
2022/08/12 01:19:54;;;;;;;21.80;7.23;;;;;;;13.09;100.00;99488.52;2240117;78;21080;-85
2022/08/12 01:22:56;;;;;;;20.57;6.67;;;;;;;13.14;100.00;99488.23;2241567;78;21128;-85
2022/08/12 01:25:58;;;;;;;20.88;6.78;;;;;;;13.12;100.00;99485.70;2243536;78;21001;-84
2022/08/12 01:29:01;;;;;;;18.35;5.22;;;;;;;12.94;100.00;99488.13;2236503;78;21087;-79
2022/08/12 01:32:04;;;;;;;15.18;3.98;;;;;;;12.79;100.00;99485.95;2234942;78;21488;-85
2022/08/12 01:35:06;;;;;;;11.93;3.37;;;;;;;12.71;100.00;99481.13;2240930;78;21050;-83
2022/08/12 01:38:08;;;;;;;14.78;4.30;;;;;;;12.64;100.00;99481.98;2241619;78;21040;-86
2022/08/12 01:41:10;;;;;;;9.93;3.08;;;;;;;12.47;100.00;99480.81;2243602;78;21011;-86
2022/08/12 01:44:11;;;;;;;14.47;3.92;;;;;;;12.31;100.00;99476.88;2233229;78;21017;-85
2022/08/12 01:47:13;;;;;;;16.55;3.40;;;;;;;12.20;100.00;99480.15;2246157;78;21088;-85
2022/08/12 01:50:15;;;;;;;12.40;3.12;;;;;;;12.15;100.00;99478.72;2243032;79;20997;-85
2022/08/12 01:53:17;;;;;;;9.45;3.20;;;;;;;12.12;100.00;99477.10;2241513;79;20958;-85
2022/08/12 01:56:18;;;;;;;16.43;4.10;;;;;;;12.17;100.00;99482.09;2245323;78;21568;-85
2022/08/12 02:02:23;;;;;;;14.58;3.95;;;;;;;12.27;100.00;99469.66;2212813;79;20990;-85
2022/08/12 02:11:31;;;;;;;18.45;5.75;;;;;;;12.26;100.00;99465.80;2210756;79;21488;-80
2022/08/12 02:14:32;;;;;;;20.88;6.67;;;;;;;12.20;100.00;99458.27;2244350;78;21100;-85
2022/08/12 02:17:34;;;;;;;17.73;5.67;;;;;;;12.19;100.00;99461.83;2226636;79;21183;-86
2022/08/12 02:20:35;;;;;;;19.60;6.37;;;;;;;12.08;100.00;99463.30;2219879;78;20993;-82
2022/08/12 02:23:37;;;;;;;18.80;6.72;;;;;;;12.00;100.00;99458.94;2242022;79;21049;-84
2022/08/12 02:26:39;;;;;;;15.58;4.83;;;;;;;12.17;100.00;99455.34;2241030;79;21076;-85
2022/08/12 02:29:41;;;;;;;14.93;4.30;;;;;;;12.04;100.00;99460.45;2244107;78;21559;-85
2022/08/12 02:32:42;;;;;;;14.43;3.33;;;;;;;11.95;100.00;99459.20;2237159;79;21008;-85
2022/08/12 02:35:44;;;;;;;9.60;3.10;;;;;;;11.88;100.00;99463.08;2245445;78;20961;-80
2022/08/12 02:38:46;;;;;;;11.65;3.12;;;;;;;11.73;100.00;99459.98;2243079;78;21009;-85
2022/08/12 02:41:47;;;;;;;10.53;2.80;;;;;;;11.74;100.00;99470.41;2240032;78;21001;-85
2022/08/12 02:44:49;;;;;;;11.10;2.90;;;;;;;11.67;100.00;99469.53;2238069;79;21072;-83
2022/08/12 02:47:50;;;;;;;25.03;5.30;;;;;;;11.63;100.00;99468.84;2243855;79;21004;-85
2022/08/12 02:50:51;;;;;;;14.33;4.43;;;;;;;11.56;100.00;99464.38;2242445;78;20993;-84
2022/08/12 02:53:53;;;;;;;17.67;5.03;;;;;;;11.69;100.00;99465.86;2235223;79;21018;-85
2022/08/12 02:56:54;;;;;;;17.87;5.67;;;;;;;11.92;100.00;99465.05;2240072;78;21587;-86
2022/08/12 02:59:56;;;;;;;18.40;5.93;;;;;;;11.96;100.00;99460.03;2242083;79;21036;-85
2022/08/12 03:02:57;;;;;;;20.02;5.97;;;;;;;11.94;100.00;99451.41;2224718;79;21777;-85
2022/08/12 03:05:59;;;;;;;19.05;5.75;;;;;;;11.98;100.00;99446.80;2230480;78;21004;-81
2022/08/12 03:09:02;;;;;;;22.13;6.75;;;;;;;11.98;100.00;99452.06;2236355;78;21036;-83
2022/08/12 03:12:04;;;;;;;20.97;6.47;;;;;;;11.94;100.00;99446.15;2237104;79;21469;-68
2022/08/12 03:15:05;;;;;;;16.93;5.13;;;;;;;11.94;100.00;99441.72;2253824;78;20990;-66
2022/08/12 03:18:07;;;;;;;18.40;4.87;;;;;;;11.91;100.00;99439.24;2258051;78;20985;-60
2022/08/12 03:21:10;;;;;;;13.48;4.10;;;;;;;11.94;100.00;99444.83;2258413;78;21054;-70
2022/08/12 03:24:12;;;;;;;16.97;4.70;;;;;;;11.82;100.00;99448.11;2250198;78;21587;-60
2022/08/12 03:27:14;;;;;;;25.05;3.80;;;;;;;11.62;100.00;99444.80;2256756;78;20997;-69
2022/08/12 03:30:15;;;;;;;15.28;4.25;;;;;;;11.41;100.00;99465.23;2260671;78;21039;-61
2022/08/12 03:33:17;;;;;;;18.63;5.50;;;;;;;11.28;100.00;99463.73;2191296;80;21452;-60
2022/08/12 03:36:19;;;;;;;18.80;5.40;;;;;;;11.35;100.00;99459.85;2191703;80;21052;-67
2022/08/12 03:42:24;;;;;;;17.17;4.62;;;;;;;11.69;100.00;99471.59;2164246;81;21048;-60
2022/08/12 04:00:44;;;;;;;22.65;6.67;;;;;;;11.99;100.00;99462.48;2242661;78;21018;-63
2022/08/12 04:06:49;;;;;;;22.35;6.20;;;;;;;12.38;100.00;99471.64;2243486;78;21494;-65
2022/08/12 04:09:51;;;;;;;22.37;6.80;;;;;;;12.53;100.00;99472.55;2256406;77;20964;-64
2022/08/12 04:16:01;;;;;;;21.27;6.40;;;;;;;12.76;100.00;99483.03;2165873;80;21040;-78
2022/08/12 04:19:01;;;;;;;19.98;6.12;;;;;;;13.08;100.00;99478.08;2184089;80;21029;-69
2022/08/12 04:22:03;;;;;;;21.90;5.78;;;;;;;13.38;100.00;99479.81;2262619;78;21057;-71
2022/08/12 04:25:05;;;;;;;24.27;7.23;;;;;;;13.53;100.00;99471.41;2260175;78;21534;-73
2022/08/12 04:28:06;;;;;;;18.10;5.67;;;;;;;13.49;100.00;99466.33;2240695;78;21071;-83
2022/08/12 04:31:11;;;;;;;19.42;5.47;;;;;;;13.41;100.00;99467.27;2223903;79;21582;-82
2022/08/12 04:34:13;;;;;;;19.17;6.03;;;;;;;13.66;100.00;99461.77;2199285;80;21478;-81
2022/08/12 04:37:15;;;;;;;21.95;7.05;;;;;;;13.97;100.00;99467.72;2210228;79;21086;-68
2022/08/12 04:40:16;;;;;;;20.30;6.45;;;;;;;14.29;100.00;99468.72;2217081;79;21294;-70
2022/08/12 04:43:18;;;;;;;23.20;6.47;;;;;;;14.45;100.00;99472.05;2213657;79;21049;-81
2022/08/12 04:46:20;;;;;;;21.17;6.25;;;;;;;14.73;100.00;99474.16;2211060;80;21080;-81
2022/08/12 04:49:23;;;;;;;;;;;;;;;14.99;100.00;99481.61;2218964;79;20988;-81
2022/08/12 04:52:24;;;;;;;21.57;7.03;;;;;;;15.25;100.00;99481.12;2205826;80;20097;-82
2022/08/12 04:55:26;;;;;;;22.37;6.57;;;;;;;15.54;100.00;99479.56;2205983;80;21016;-81
2022/08/12 04:58:28;;;;;;;19.50;6.15;;;;;;;15.90;100.00;99476.58;2203542;80;21023;-81
2022/08/12 05:01:31;;;;;;;21.97;6.33;;;;;;;16.11;100.00;99478.11;2207213;80;21051;-82
2022/08/12 05:04:33;;;;;;;20.68;5.65;;;;;;;16.38;100.00;99473.05;2207056;80;21530;-80
2022/08/12 05:07:34;;;;;;;21.60;5.77;;;;;;;16.56;100.00;99469.97;2209140;80;21083;-82
2022/08/12 05:10:36;;;;;;;16.15;5.42;;;;;;;16.82;100.00;99480.39;2204196;80;21069;-81
2022/08/12 05:13:37;;;;;;;16.90;5.60;;;;;;;17.06;100.00;99479.02;2183675;80;21012;-76
2022/08/12 05:16:39;;;;;;;18.60;5.95;;;;;;;17.26;100.00;99471.67;2198786;80;21024;-81
2022/08/12 05:19:41;;;;;;;16.75;5.35;;;;;;;17.37;100.00;99477.47;2198684;81;20976;-76
2022/08/12 05:22:44;;;;;;;17.48;5.55;;;;;;;17.58;100.00;99472.23;2193100;80;21005;-71
2022/08/12 05:25:45;;;;;;;20.75;6.33;;;;;;;17.96;100.00;99472.83;2196098;80;21012;-76
2022/08/12 05:28:47;;;;;;;19.45;5.95;;;;;;;18.21;100.00;99470.30;2198884;81;20999;-77
2022/08/12 05:31:55;;;;;;;16.95;5.47;;;;;;;18.32;100.00;99478.23;2202992;80;21955;-77
2022/08/12 05:34:52;;;;;;;20.00;5.65;;;;;;;18.48;100.00;99478.28;2181068;80;21023;-81
2022/08/12 05:40:58;;;;;;;15.65;5.60;;;;;;;19.01;100.00;99480.89;2182972;80;21076;-80
2022/08/12 05:44:00;;;;;;;14.13;4.70;;;;;;;19.14;100.00;99479.34;2194238;80;21000;-75
2022/08/12 05:47:01;;;;;;;13.90;4.35;;;;;;;19.46;100.00;99474.36;2205074;80;20977;-71
2022/08/12 05:50:03;;;;;;;15.15;4.35;;;;;;;19.61;100.00;99481.50;2191345;81;21488;-81
2022/08/12 05:53:05;;;;;;;12.95;3.90;;;;;;;19.83;100.00;99466.31;2205116;80;21000;-76
2022/08/12 05:56:07;;;;;;;10.35;3.65;;;;;;;20.10;100.00;99474.97;2198279;80;21078;-81
2022/08/12 05:59:09;;;;;;;13.48;4.33;;;;;;;20.25;100.00;99471.39;2197931;80;21032;-81
2022/08/12 06:02:11;;;;;;;14.05;4.15;;;;;;;20.37;100.00;99462.28;2204745;80;21000;-78
2022/08/12 06:05:14;;;;;;;15.60;4.03;;;;;;;20.62;100.00;99459.17;2200121;80;21602;-82
2022/08/12 06:08:16;;;;;;;12.88;3.92;;;;;;;20.91;100.00;99457.80;2198379;80;20992;-81
2022/08/12 06:11:18;;;;;;;13.70;3.92;;;;;;;21.18;100.00;99460.17;2201370;80;21475;-82
2022/08/12 06:14:21;;;;;;;14.33;4.20;;;;;;;21.41;100.00;99461.47;2200749;80;20992;-80
2022/08/12 06:17:22;;;;;;;14.75;4.03;;;;;;;21.71;100.00;99453.34;2182674;80;20981;-81
2022/08/12 06:20:24;;;;;;;11.53;4.15;;;;;;;21.96;100.00;99448.58;2193631;80;21550;-81
2022/08/12 06:23:27;;;;;;;12.98;4.50;;;;;;;22.26;100.00;99453.20;2199941;80;21012;-80
2022/08/12 06:26:29;;;;;;;12.65;4.28;;;;;;;22.52;100.00;99456.96;2199501;79;21010;-70
2022/08/12 06:29:30;;;;;;;14.65;4.47;;;;;;;22.70;100.00;99454.23;2203867;80;21078;-78
2022/08/12 06:32:31;;;;;;;14.33;4.40;;;;;;;22.68;100.00;99457.06;2204947;80;20997;-77
2022/08/12 06:35:33;;;;;;;15.32;4.47;;;;;;;22.82;100.00;99451.66;2203856;80;20976;-73
2022/08/12 06:38:35;;;;;;;12.30;4.22;;;;;;;22.92;100.00;99448.37;2193987;80;21596;-78
2022/08/12 06:44:40;;;;;;;12.70;4.70;;;;;;;23.50;100.00;99445.98;2196133;79;21009;-79
2022/08/12 06:47:42;;;;;;;14.35;4.20;;;;;;;23.84;100.00;99442.41;2210353;79;21488;-70
2022/08/12 06:50:44;;;;;;;16.05;4.40;;;;;;;23.81;100.00;99431.52;2214202;79;20960;-73
2022/08/12 06:53:48;;;;;;;15.23;4.65;;;;;;;23.80;100.00;99432.52;2210029;79;21499;-78
2022/08/12 06:56:51;;;;;;;17.85;4.45;;;;;;;23.91;100.00;99437.28;2193542;79;20988;-75
2022/08/12 06:59:53;;;;;;;15.32;4.50;;;;;;;23.91;100.00;99435.94;2185671;79;21552;-67
2022/08/12 07:02:54;;;;;;;15.20;4.20;;;;;;;23.90;100.00;99440.95;2206903;80;21092;-69
2022/08/12 07:05:56;;;;;;;18.60;5.05;;;;;;;23.92;98.93;99439.79;2213091;80;21091;-70
2022/08/12 07:08:57;;;;;;;19.35;4.28;;;;;;;24.07;100.00;99448.52;2209649;80;21062;-76
2022/08/12 07:11:58;;;;;;;16.77;4.35;;;;;;;24.24;100.00;99443.50;2183599;80;21041;-75
2022/08/12 07:15:00;;;;;;;18.25;4.28;;;;;;;24.58;100.00;99446.48;2175243;80;21665;-78
2022/08/12 07:21:05;;;;;;;8.65;3.60;;;;;;;24.56;96.06;99437.78;2208482;79;21028;-63
2022/08/12 07:24:06;;;;;;;14.80;3.98;;;;;;;24.63;98.80;99441.50;2231514;79;21493;-68
2022/08/12 07:27:07;;;;;;;17.07;4.47;;;;;;;24.82;97.98;99435.44;2199790;79;20978;-73
2022/08/12 07:30:09;;;;;;;13.20;4.33;;;;;;;24.85;91.77;99437.25;2196020;80;21015;-70
2022/08/12 07:33:10;;;;;;;12.80;3.90;;;;;;;24.78;87.09;99426.88;2198830;78;21000;-62
2022/08/12 07:36:12;;;;;;;13.15;4.00;;;;;;;24.77;89.25;99436.44;2238621;79;21072;-72
2022/08/12 07:39:14;;;;;;;10.30;3.70;;;;;;;24.85;92.91;99440.45;2235081;78;21004;-76
2022/08/12 07:42:15;;;;;;;10.10;4.03;;;;;;;25.17;93.01;99440.88;2241207;79;20953;-66
2022/08/12 07:45:19;;;;;;;16.97;4.28;;;;;;;25.44;87.81;99442.80;2242344;78;21023;-60
2022/08/12 07:48:20;;;;;;;14.58;4.50;;;;;;;25.38;85.16;99448.88;2244027;78;21490;-71
2022/08/12 07:51:22;;;;;;;14.50;4.22;;;;;;;25.45;87.63;99452.53;2218022;78;20992;-66
2022/08/12 07:54:23;;;;;;;13.83;3.65;;;;;;;25.37;81.64;99457.45;2216028;80;21665;-65
2022/08/12 07:57:25;;;;;;;12.00;4.20;;;;;;;25.32;82.03;99439.67;2247721;79;20973;-65
2022/08/12 08:00:26;;;;;;;9.98;3.45;;;;;;;25.15;81.14;99450.11;2248418;78;21514;-77
2022/08/12 08:03:29;;;;;;;10.93;3.62;;;;;;;25.32;84.73;99448.23;2218989;79;21284;-74
2022/08/12 08:06:30;;;;;;;13.55;4.33;;;;;;;25.40;83.60;99445.02;2210115;80;21562;-76
2022/08/12 08:09:32;;;;;;;12.30;3.70;;;;;;;25.05;81.28;99447.61;2246490;78;20988;-67
2022/08/12 08:15:38;;;;;;;8.40;3.67;;;;;;;25.00;80.43;99449.48;2179869;80;21584;-75
2022/08/12 08:18:39;;;;;;;12.23;3.80;;;;;;;25.29;78.44;99441.84;2196474;80;21013;-77
2022/08/12 08:21:41;;;;;;;11.50;3.72;;;;;;;25.41;76.49;99441.81;2248297;78;21559;-78
2022/08/12 08:24:44;;;;;;;13.72;3.67;;;;;;;25.65;77.21;99440.03;2248411;78;21029;-78
2022/08/12 08:27:45;;;;;;;13.90;3.70;;;;;;;26.30;81.01;99443.31;2229763;79;21016;-74
2022/08/12 08:30:48;;;;;;;13.28;3.60;;;;;;;26.94;78.10;99439.70;2208600;80;21562;-72
2022/08/12 08:33:49;;;;;;;12.23;3.60;;;;;;;27.29;71.96;99437.27;2232364;79;21080;-76
2022/08/12 08:36:51;;;;;;;9.93;3.85;;;;;;;26.90;70.81;99441.61;2208162;80;21579;-74
2022/08/12 08:39:52;;;;;;;12.03;3.92;;;;;;;26.90;69.54;99449.68;2232606;79;20973;-79
2022/08/12 08:42:54;;;;;;;14.40;3.87;;;;;;;27.08;69.27;99442.57;2209946;80;21050;-78
2022/08/12 08:45:55;;;;;;;11.78;4.00;;;;;;;27.07;71.13;99443.61;2223619;79;21068;-71
2022/08/12 08:49:00;;;;;;;;;;;;;;;26.72;68.58;99453.56;2213891;80;21009;-69
2022/08/12 08:52:00;;;;;;;12.20;3.60;;;;;;;26.85;72.01;99454.77;2189754;80;20411;-68
2022/08/12 08:55:01;;;;;;;9.58;3.40;;;;;;;26.87;64.59;99448.70;2208474;80;21009;-76
2022/08/12 08:58:03;;;;;;;11.97;3.42;;;;;;;27.28;70.31;99453.12;2210276;80;21101;-63
2022/08/12 09:01:04;;;;;;;9.88;3.67;;;;;;;27.82;69.48;99443.83;2208577;80;21003;-81
2022/08/12 09:04:06;;;;;;;11.65;3.50;;;;;;;28.29;68.16;99447.55;2206291;80;21216;-75
2022/08/12 09:07:07;;;;;;;9.50;3.70;;;;;;;27.95;66.09;99453.09;2210872;80;21492;-71
2022/08/12 09:10:09;;;;;;;;;;;;;;;28.39;66.14;99437.76;2234112;79;20993;-66
2022/08/12 09:16:14;;;;;;;13.18;3.65;;;;;;;28.95;58.72;99443.20;2215326;78;20995;-67
2022/08/12 09:19:17;;;;;;;8.45;3.17;;;;;;;29.20;63.62;99444.06;2233609;79;21082;-63
2022/08/12 09:22:19;;;;;;;15.05;3.67;;;;;;;29.40;55.11;99442.02;2233699;79;21017;-67
2022/08/12 09:25:21;;;;;;;12.20;3.52;;;;;;;28.73;54.83;99437.55;2239792;79;21560;-74
2022/08/12 09:28:23;;;;;;;24.18;4.08;;;;;;;28.73;59.46;99433.49;2243673;79;20955;-70
2022/08/12 09:31:24;;;;;;;10.25;3.60;;;;;;;28.61;59.63;99433.17;2237177;78;21036;-73
2022/08/12 09:34:28;;;;;;;;;;;;;;;28.61;58.83;99429.98;2241410;78;20990;-71
2022/08/12 09:37:29;;;;;;;14.40;4.47;;;;;;;29.02;58.27;99437.32;2203041;78;20126;-64
2022/08/12 09:40:30;;;;;;;;;;;;;;;28.67;55.24;99436.47;2272942;78;20985;-76
2022/08/12 09:46:35;;;;;;;11.55;3.90;;;;;;;28.48;60.89;99436.08;2260106;77;21562;-73
2022/08/12 09:49:37;;;;;;;;;;;;;;;29.10;59.07;99424.16;2280731;77;21052;-62
2022/08/12 09:52:38;;;;;;;12.47;3.83;;;;;;;29.73;51.40;99417.27;2286603;77;20391;-78
2022/08/12 09:55:39;;;;;;;12.03;3.90;;;;;;;30.24;50.75;99425.40;2276354;77;20993;-61
2022/08/12 09:58:41;;;;;;;12.70;3.80;;;;;;;30.13;54.98;99423.80;2275389;77;21012;-64
2022/08/12 10:01:42;;;;;;;11.70;3.70;;;;;;;30.30;53.12;99427.80;2279969;77;20988;-74
2022/08/12 10:04:47;;;;;;;10.43;3.35;;;;;;;29.27;53.14;99436.03;2285200;77;21000;-77
2022/08/12 10:07:47;;;;;;;13.32;4.03;;;;;;;29.09;52.76;99436.52;2256396;77;21051;-77
2022/08/12 10:13:52;;;;;;;10.95;3.60;;;;;;;29.73;56.99;99412.39;2263649;77;20104;-75
2022/08/12 10:16:53;;;;;;;;;;;;;;;29.75;55.09;99412.18;2284067;77;21472;-66
2022/08/12 10:19:55;;;;;;;8.78;3.70;;;;;;;29.38;52.86;99403.05;2283294;77;20155;-75
2022/08/12 10:22:56;;;;;;;;;;;;;;;29.94;55.94;99398.41;2286161;77;21475;-69
2022/08/12 10:32:05;;;;;;;12.40;3.52;;;;;;;29.79;51.03;99407.51;2185245;80;22335;-75
2022/08/12 10:35:06;;;;;;;10.28;3.80;;;;;;;29.43;51.19;99408.66;2209772;80;21083;-78
2022/08/12 10:38:16;;;;;;;;;;;;;;;28.94;51.07;99401.03;2211997;80;21498;-69
2022/08/12 10:44:14;;;;;;;8.60;3.52;;;;;;;29.02;54.54;99394.62;2212515;80;20973;-77
2022/08/12 10:47:19;;;;;;;8.40;3.22;;;;;;;29.46;50.10;99393.91;2203859;80;21047;-81
2022/08/12 10:50:21;;;;;;;12.68;3.50;;;;;;;29.49;50.35;99394.86;2185132;80;21039;-81
2022/08/12 10:53:23;;;;;;;10.60;3.75;;;;;;;29.49;49.11;99398.37;2214119;80;21170;-75
2022/08/12 10:56:24;;;;;;;10.85;3.20;;;;;;;29.53;50.60;99401.52;2213474;80;21614;-73
2022/08/12 10:59:27;;;;;;;8.10;3.10;;;;;;;29.18;48.39;99398.87;2200707;80;21077;-81
2022/08/12 11:02:29;;;;;;;14.28;3.60;;;;;;;28.61;49.07;99396.75;2201103;80;21021;-76
2022/08/12 11:05:33;;;;;;;;;;;;;;;28.95;51.53;99390.55;2206614;79;21528;-74
2022/08/12 11:08:36;;;;;;;7.05;3.10;;;;;;;29.17;50.15;99376.42;2181400;80;20096;-62
2022/08/12 11:11:37;;;;;;;12.55;3.40;;;;;;;29.04;49.02;99396.63;2197534;80;21296;-71
2022/08/12 11:14:41;;;;;;;;;;;;;;;29.21;52.31;99397.94;2207389;80;21028;-74
2022/08/12 11:17:42;;;;;;;7.95;3.17;;;;;;;29.29;49.78;99399.66;2178723;80;20132;-72
2022/08/12 11:20:43;;;;;;;10.75;3.45;;;;;;;29.61;51.21;99399.14;2217586;79;21005;-71
2022/08/12 11:23:44;;;;;;;12.35;3.25;;;;;;;29.49;44.46;99390.27;2234332;79;21511;-63
2022/08/12 11:26:48;;;;;;;9.00;3.60;;;;;;;29.62;48.28;99390.83;2215838;79;21027;-71
2022/08/12 11:29:50;;;;;;;11.48;3.55;;;;;;;29.87;49.55;99388.96;2243232;78;21004;-65
2022/08/12 11:32:51;;;;;;;10.55;3.60;;;;;;;30.30;48.29;99389.06;2241305;78;20992;-66
2022/08/12 11:35:52;;;;;;;7.87;3.30;;;;;;;29.99;48.71;99393.23;2240191;78;21095;-66
2022/08/12 11:38:54;;;;;;;9.18;3.10;;;;;;;30.14;48.01;99383.05;2233753;78;21060;-70
2022/08/12 11:41:56;;;;;;;6.00;3.20;;;;;;;30.44;46.73;99383.16;2249393;78;21624;-66
2022/08/12 11:44:57;;;;;;;8.93;3.65;;;;;;;30.10;46.74;99380.45;2256323;78;20982;-74
2022/08/12 11:47:59;;;;;;;10.53;3.60;;;;;;;29.85;49.57;99381.56;2256448;78;21562;-79
2022/08/12 11:51:00;;;;;;;9.73;3.42;;;;;;;29.78;47.96;99382.03;2258032;78;20972;-76
2022/08/12 11:54:03;;;;;;;8.55;3.60;;;;;;;29.89;48.94;99384.16;2254573;78;21491;-75
2022/08/12 11:57:05;;;;;;;9.68;3.67;;;;;;;29.81;48.37;99384.33;2256416;78;21029;-79
2022/08/12 12:00:06;;;;;;;10.32;3.60;;;;;;;29.79;48.58;99376.42;2257106;78;20973;-78
2022/08/12 12:03:07;;;;;;;9.08;3.60;;;;;;;29.70;48.23;99387.12;2254522;78;20988;-77
2022/08/12 12:06:09;;;;;;;10.03;3.70;;;;;;;29.52;46.15;99377.73;2255536;78;21000;-64
2022/08/12 12:09:10;;;;;;;10.40;3.70;;;;;;;29.26;47.61;99378.45;2254295;78;21602;-78
2022/08/12 12:12:12;;;;;;;7.37;3.17;;;;;;;29.09;49.61;99375.23;2244721;78;21115;-72
2022/08/12 12:15:13;;;;;;;9.85;3.40;;;;;;;29.21;47.96;99374.16;2240686;79;21541;-78
2022/08/12 12:18:15;;;;;;;9.63;3.67;;;;;;;29.23;46.53;99376.69;2241446;78;21023;-65
2022/08/12 12:21:16;;;;;;;11.83;3.55;;;;;;;29.20;47.67;99374.66;2244864;78;21506;-77
2022/08/12 12:24:18;;;;;;;10.50;3.45;;;;;;;29.61;49.33;99378.88;2204011;80;21012;-72
2022/08/12 12:27:19;;;;;;;10.58;3.70;;;;;;;30.08;49.18;99378.45;2199890;80;20980;-72
2022/08/12 12:30:21;;;;;;;9.80;3.77;;;;;;;30.36;48.14;99368.78;2199054;81;21059;-69
2022/08/12 12:33:22;;;;;;;9.95;3.62;;;;;;;30.36;46.08;99365.25;2204914;80;20999;-76
2022/08/12 12:36:24;;;;;;;9.68;3.50;;;;;;;30.50;46.06;99363.38;2198227;80;20989;-75
2022/08/12 12:39:26;;;;;;;7.35;3.40;;;;;;;30.30;45.50;99367.42;2195644;80;21056;-79
2022/08/12 12:42:27;;;;;;;10.10;3.65;;;;;;;29.85;44.52;99363.45;2205862;80;21036;-73
2022/08/12 12:45:29;;;;;;;10.45;4.10;;;;;;;29.79;45.43;99364.78;2189053;80;21080;-68
2022/08/12 12:48:30;;;;;;;16.10;4.40;;;;;;;30.07;45.37;99360.59;2203293;80;21034;-77
2022/08/12 12:51:32;;;;;;;11.15;3.85;;;;;;;30.72;44.13;99349.91;2205897;79;20978;-72
2022/08/12 12:54:33;;;;;;;12.73;4.08;;;;;;;30.93;42.50;99354.73;2203397;80;20966;-76
2022/08/12 12:57:35;;;;;;;12.45;4.17;;;;;;;31.23;44.31;99352.87;2199507;80;21571;-72
2022/08/12 13:00:39;;;;;;;9.45;3.77;;;;;;;31.48;41.55;99352.96;2198892;80;21032;-66
2022/08/12 13:03:39;;;;;;;13.55;4.33;;;;;;;31.62;42.89;99353.72;2171600;80;21041;-65
2022/08/12 13:06:41;;;;;;;14.73;4.40;;;;;;;31.79;41.68;99355.38;2203363;80;21555;-78
2022/08/12 13:09:42;;;;;;;8.15;3.67;;;;;;;31.69;43.34;99353.16;2198319;80;21095;-80
2022/08/12 13:12:44;;;;;;;8.70;3.70;;;;;;;32.06;43.63;99352.48;2192864;80;21009;-68
2022/08/12 13:15:48;;;;;;;11.85;3.95;;;;;;;32.35;44.91;99340.13;2207213;80;21020;-65
2022/08/12 13:18:49;;;;;;;11.43;4.08;;;;;;;32.70;43.62;99341.48;2196467;80;21014;-75
2022/08/12 13:24:56;;;;;;;15.00;4.10;;;;;;;32.42;40.93;99339.54;2185045;80;21522;-71
2022/08/12 13:27:57;;;;;;;10.80;4.10;;;;;;;32.04;43.23;99336.94;2246813;78;21036;-79
2022/08/12 13:30:59;;;;;;;13.88;4.72;;;;;;;32.32;43.97;99331.09;2242220;78;20989;-72
2022/08/12 13:34:03;;;;;;;12.45;4.17;;;;;;;32.25;41.99;99325.74;2242897;78;21627;-73
2022/08/12 13:37:04;;;;;;;10.88;3.92;;;;;;;31.38;43.80;99327.69;2206641;79;21565;-77
2022/08/12 13:40:05;;;;;;;11.93;4.40;;;;;;;31.26;44.22;99323.48;2235073;78;20965;-68
2022/08/12 13:43:07;;;;;;;10.53;4.00;;;;;;;31.18;45.43;99321.55;2245202;78;20992;-72
2022/08/12 13:46:08;;;;;;;14.13;4.53;;;;;;;31.22;44.25;99315.48;2243681;78;21115;-77
2022/08/12 13:49:12;;;;;;;10.30;4.28;;;;;;;30.81;45.29;99322.61;2243619;78;21031;-78
2022/08/12 13:52:13;;;;;;;12.07;4.30;;;;;;;30.23;44.14;99314.70;2226939;78;21008;-78
2022/08/12 13:55:15;;;;;;;11.55;4.37;;;;;;;29.31;46.29;99320.63;2241278;78;21000;-76
2022/08/12 13:58:16;;;;;;;9.63;4.37;;;;;;;29.16;49.05;99313.16;2239012;78;21069;-79
2022/08/12 14:01:19;;;;;;;9.98;4.08;;;;;;;29.63;48.66;99304.67;2241886;79;20987;-76
2022/08/12 14:04:21;;;;;;;11.35;4.05;;;;;;;29.48;47.45;99312.12;2244834;79;21067;-77
2022/08/12 14:07:22;;;;;;;11.55;4.50;;;;;;;28.94;48.82;99318.69;2244269;78;21000;-77
2022/08/12 14:13:28;;;;;;;11.60;4.40;;;;;;;27.96;53.15;99320.82;2220609;79;21511;-74
2022/08/12 14:16:30;;;;;;;12.03;4.12;;;;;;;28.25;52.90;99315.48;2243030;78;21005;-77
2022/08/12 14:19:31;;;;;;;10.38;4.28;;;;;;;28.49;52.41;99312.84;2242054;78;21010;-77
2022/08/12 14:22:34;;;;;;;;;;;;;;;28.57;52.82;99309.14;2244534;79;20989;-76
2022/08/12 14:25:35;;;;;;;12.55;4.50;;;;;;;28.48;53.07;99309.81;2245977;78;20104;-76
2022/08/12 14:28:37;;;;;;;10.78;4.12;;;;;;;28.20;53.40;99313.88;2244806;79;20953;-76
2022/08/12 14:31:41;;;;;;;12.78;4.08;;;;;;;27.78;55.30;99314.53;2241481;78;21108;-76
2022/08/12 14:34:43;;;;;;;12.55;4.55;;;;;;;27.53;56.75;99317.30;2243483;78;21073;-77
2022/08/12 14:37:44;;;;;;;11.83;4.30;;;;;;;27.27;57.65;99316.80;2241803;79;21540;-77
2022/08/12 14:40:45;;;;;;;13.13;4.50;;;;;;;26.97;58.94;99314.70;2244604;78;21065;-76
2022/08/12 14:43:48;;;;;;;;;;;;;;;26.59;60.25;99311.59;2246882;78;21027;-77
2022/08/12 14:46:54;;;;;;;12.00;4.40;;;;;;;26.28;61.93;99314.45;2245694;78;20099;-77
2022/08/12 14:49:53;;;;;;;13.65;4.65;;;;;;;26.19;62.98;99311.50;2209994;79;21008;-77
2022/08/12 14:52:54;;;;;;;15.10;4.85;;;;;;;26.07;64.43;99311.11;2243546;79;20984;-77
2022/08/12 14:55:56;;;;;;;18.85;5.00;;;;;;;26.14;65.63;99309.88;2244364;79;21075;-76
2022/08/12 15:02:00;;;;;;;11.40;4.35;;;;;;;26.34;64.70;99306.16;2221780;78;20973;-76
2022/08/12 15:05:03;;;;;;;13.48;4.20;;;;;;;26.32;64.77;99308.18;2244093;78;21016;-74
2022/08/12 15:08:09;;;;;;;13.08;4.47;;;;;;;26.25;66.45;99302.72;2243840;78;21056;-76
2022/08/12 15:11:12;;;;;;;14.28;4.30;;;;;;;26.31;65.93;99309.22;2219222;79;21053;-75
2022/08/12 15:14:11;;;;;;;11.93;3.75;;;;;;;26.28;66.62;99301.83;2216508;79;20997;-77
2022/08/12 15:17:12;;;;;;;11.75;4.12;;;;;;;26.12;67.57;99299.31;2243705;78;21490;-76
2022/08/12 15:20:14;;;;;;;15.50;4.45;;;;;;;26.20;67.40;99295.70;2245353;78;21115;-77
2022/08/12 15:23:17;;;;;;;11.28;4.10;;;;;;;26.32;67.97;99288.02;2242722;78;20985;-71
2022/08/12 15:26:21;;;;;;;13.93;4.17;;;;;;;27.74;63.33;99285.48;2247358;78;20987;-67
2022/08/12 15:29:22;;;;;;;11.53;4.25;;;;;;;28.49;60.69;99273.20;2210452;79;21040;-76
2022/08/12 15:32:23;;;;;;;;;;;;;;;30.18;54.49;99273.38;2249456;78;21111;-72
2022/08/12 15:41:32;;;;;;;22.13;4.78;;;;;;;32.51;44.38;99255.11;2195755;80;21663;-75
2022/08/12 15:44:35;;;;;;;11.15;4.10;;;;;;;33.15;47.08;99257.74;2207225;80;21002;-77
2022/08/12 15:47:37;;;;;;;12.35;4.03;;;;;;;33.84;43.09;99253.27;2203979;80;21048;-76
2022/08/12 15:50:38;;;;;;;11.57;4.37;;;;;;;34.68;42.21;99260.32;2209599;80;21468;-76
2022/08/12 15:56:43;;;;;;;11.90;3.80;;;;;;;34.77;37.83;99264.00;2193772;80;21022;-73
2022/08/12 15:59:47;;;;;;;9.78;3.60;;;;;;;33.45;40.36;99257.46;2201927;80;21542;-76
2022/08/12 16:02:49;;;;;;;10.50;3.90;;;;;;;34.16;40.01;99261.06;2200063;80;20982;-76
2022/08/12 16:05:51;;;;;;;9.85;3.62;;;;;;;34.65;38.17;99252.64;2199160;80;21504;-77
2022/08/12 16:08:52;;;;;;;11.70;3.75;;;;;;;34.63;36.93;99259.38;2200539;80;20997;-75
2022/08/12 16:11:54;;;;;;;10.35;3.87;;;;;;;34.76;37.90;99261.83;2204522;80;21053;-77
2022/08/12 16:14:55;;;;;;;11.50;3.70;;;;;;;35.40;36.38;99255.42;2202886;80;21031;-75
2022/08/12 16:17:57;;;;;;;16.15;4.50;;;;;;;35.37;35.63;99262.22;2203872;80;21003;-77
2022/08/12 16:20:58;;;;;;;13.28;4.30;;;;;;;35.80;35.33;99257.19;2201696;80;21010;-77